Time;durP1;ratioP1;P1;durP2;ratioP2;P2;SDS_P1;SDS_P2;PMS_P1;PMS_P2;Temp;Humidity;BMP_temperature;BMP_pressure;BME280_temperature;BME280_humidity;BME280_pressure;Samples;Min_cycle;Max_cycle;Signal;HPM_P1;HPM_P2
2022/06/07 00:01:39;;;;;;;2.57;1.40;;;20.50;99.90;;;;;;4965702;28;20693;-72
2022/06/07 00:04:05;;;;;;;3.63;1.80;;;20.60;99.90;;;;;;4965444;28;20471;-72
2022/06/07 00:06:31;;;;;;;2.20;1.53;;;20.60;99.90;;;;;;4952889;28;20460;-72
2022/06/07 00:08:57;;;;;;;1.97;1.77;;;20.50;99.90;;;;;;4965356;28;20424;-72
2022/06/07 00:11:23;;;;;;;2.97;1.90;;;20.60;99.90;;;;;;4965505;28;20417;-72
2022/06/07 00:13:49;;;;;;;1.80;1.50;;;20.70;99.90;;;;;;4964540;28;20217;-72
2022/06/07 00:16:16;;;;;;;5.13;2.53;;;20.60;99.90;;;;;;4965313;28;20416;-73
2022/06/07 00:18:42;;;;;;;1.90;1.80;;;20.60;99.90;;;;;;4965381;28;20192;-73
2022/06/07 00:21:08;;;;;;;1.97;1.87;;;20.50;99.90;;;;;;4958745;28;20428;-72
2022/06/07 00:23:34;;;;;;;1.83;1.43;;;20.30;99.90;;;;;;4965379;28;20796;-73
2022/06/07 00:26:01;;;;;;;3.30;1.90;;;20.30;99.90;;;;;;4965442;28;20256;-72
2022/06/07 00:28:28;;;;;;;1.87;1.77;;;20.40;99.90;;;;;;4964824;28;20619;-72
2022/06/07 00:30:54;;;;;;;1.70;1.60;;;20.50;99.90;;;;;;4965163;28;20427;-74
2022/06/07 00:33:22;;;;;;;2.07;1.80;;;20.50;99.90;;;;;;4964810;28;20432;-73
2022/06/07 00:35:48;;;;;;;2.57;1.80;;;20.40;99.90;;;;;;4964843;28;20519;-71
2022/06/07 00:38:14;;;;;;;2.03;1.90;;;20.50;99.90;;;;;;4965542;28;20527;-73
2022/06/07 00:40:41;;;;;;;1.80;1.60;;;20.50;99.90;;;;;;4965305;28;20468;-72
2022/06/07 00:43:07;;;;;;;2.37;1.70;;;20.60;99.90;;;;;;4965174;28;20258;-71
2022/06/07 00:45:34;;;;;;;1.60;1.37;;;20.50;99.90;;;;;;4965442;28;20913;-72
2022/06/07 00:47:59;;;;;;;1.83;1.60;;;20.40;99.90;;;;;;4965212;28;20463;-72
2022/06/07 00:50:38;;;;;;;2.13;1.80;;;20.50;99.90;;;;;;4965445;28;20413;-71
2022/06/07 00:53:04;;;;;;;2.30;1.57;;;20.60;99.90;;;;;;4965186;28;20231;-72
2022/06/07 00:55:30;;;;;;;2.30;1.30;;;20.40;99.90;;;;;;4965053;28;20840;-71
2022/06/07 00:57:56;;;;;;;1.67;1.57;;;20.10;99.90;;;;;;4964912;28;20913;-72
2022/06/07 01:00:23;;;;;;;1.60;1.50;;;20.20;99.90;;;;;;4965855;28;20427;-72
2022/06/07 01:02:51;;;;;;;1.43;1.33;;;19.90;99.90;;;;;;4968964;28;20623;-72
2022/06/07 01:05:17;;;;;;;1.63;1.43;;;19.90;99.90;;;;;;4968846;28;20419;-72
2022/06/07 01:10:50;;;;;;;2.27;1.90;;;20.00;99.90;;;;;;4908956;29;20980;-71
2022/06/07 01:13:19;;;;;;;1.77;1.67;;;19.90;99.90;;;;;;4908339;29;20482;-72
2022/06/07 01:15:46;;;;;;;1.73;1.37;;;19.80;99.90;;;;;;4939076;28;20412;-72
2022/06/07 01:18:13;;;;;;;4.40;1.40;;;19.90;99.90;;;;;;4968633;28;20759;-73
2022/06/07 01:20:39;;;;;;;1.63;1.53;;;19.80;99.90;;;;;;4968801;28;20420;-73
2022/06/07 01:23:05;;;;;;;1.50;1.40;;;19.70;99.90;;;;;;4967231;28;20447;-73
2022/06/07 01:25:31;;;;;;;2.80;1.63;;;19.80;99.90;;;;;;4968375;28;20471;-73
2022/06/07 01:27:57;;;;;;;1.90;1.80;;;19.80;99.90;;;;;;4959235;28;20456;-71
2022/06/07 01:30:23;;;;;;;2.77;1.73;;;19.60;99.90;;;;;;4968225;28;20196;-73
2022/06/07 01:32:48;;;;;;;1.50;1.40;;;19.60;99.90;;;;;;4968444;28;20205;-73
2022/06/07 01:35:14;;;;;;;1.30;1.10;;;19.60;99.90;;;;;;4968625;28;20422;-72
2022/06/07 01:37:40;;;;;;;1.57;1.47;;;19.60;99.90;;;;;;4968523;28;20192;-71
2022/06/07 01:42:51;;;;;;;1.97;1.40;;;19.70;99.90;;;;;;4968308;28;21039;-72
2022/06/07 01:45:17;;;;;;;2.20;1.57;;;19.40;99.90;;;;;;4968307;28;20412;-72
2022/06/07 01:47:42;;;;;;;1.57;1.47;;;19.60;99.90;;;;;;4968040;28;20208;-74
2022/06/07 01:50:08;;;;;;;2.00;1.60;;;19.40;99.90;;;;;;4968299;28;20192;-74
2022/06/07 01:52:35;;;;;;;3.07;1.53;;;19.50;99.90;;;;;;4968266;28;20197;-73
2022/06/07 01:55:01;;;;;;;1.37;1.27;;;19.40;99.90;;;;;;4956250;28;20825;-72
2022/06/07 01:57:28;;;;;;;1.63;1.53;;;19.20;99.90;;;;;;4968302;28;20466;-72
2022/06/07 01:59:55;;;;;;;1.80;1.60;;;19.20;99.90;;;;;;4967939;28;20760;-72
2022/06/07 02:02:24;;;;;;;1.50;1.40;;;19.20;99.90;;;;;;4968467;28;20452;-72
2022/06/07 02:04:50;;;;;;;1.80;1.40;;;19.10;99.90;;;;;;4967942;28;20420;-72
2022/06/07 02:07:19;;;;;;;2.83;1.43;;;19.00;99.90;;;;;;4967054;28;20542;-73
2022/06/07 02:09:45;;;;;;;2.70;1.20;;;19.00;99.90;;;;;;4966723;28;20472;-72
2022/06/07 02:12:11;;;;;;;1.57;1.47;;;19.00;99.90;;;;;;4966962;28;20563;-73
2022/06/07 02:14:39;;;;;;;2.43;1.60;;;19.00;99.90;;;;;;4967850;28;20421;-72
2022/06/07 02:17:05;;;;;;;2.10;1.00;;;18.80;99.90;;;;;;4967918;28;20777;-73
2022/06/07 02:19:31;;;;;;;1.80;1.27;;;18.70;99.90;;;;;;4967755;28;20444;-73
2022/06/07 02:21:56;;;;;;;1.53;1.43;;;18.80;99.90;;;;;;4967407;28;20412;-73
2022/06/07 02:24:22;;;;;;;1.60;1.20;;;18.80;99.90;;;;;;4967641;28;20217;-73
2022/06/07 02:26:56;;;;;;;1.57;1.47;;;19.00;99.90;;;;;;4967361;28;20209;-73
2022/06/07 02:29:30;;;;;;;1.67;1.57;;;19.10;99.90;;;;;;4967335;28;20572;-74
2022/06/07 02:32:00;;;;;;;1.20;1.10;;;19.00;99.90;;;;;;4967326;28;20420;-74
2022/06/07 02:34:26;;;;;;;1.47;1.30;;;19.10;99.90;;;;;;4967595;28;20404;-74
2022/06/07 02:36:55;;;;;;;1.10;1.00;;;19.20;99.90;;;;;;4967776;28;20460;-72
2022/06/07 02:39:22;;;;;;;1.73;1.30;;;19.20;99.90;;;;;;4967312;28;20427;-72
2022/06/07 02:41:49;;;;;;;3.53;1.37;;;19.10;99.90;;;;;;4967125;28;20417;-73
2022/06/07 02:44:15;;;;;;;3.50;1.37;;;19.10;99.90;;;;;;4967024;28;20425;-72
2022/06/07 02:46:41;;;;;;;1.73;1.23;;;18.90;99.90;;;;;;4967170;28;20455;-73
2022/06/07 02:49:06;;;;;;;3.37;1.43;;;18.80;99.90;;;;;;4967187;28;20181;-72
2022/06/07 02:51:32;;;;;;;1.40;1.27;;;18.80;99.90;;;;;;4967713;28;20174;-73
2022/06/07 02:53:58;;;;;;;1.20;1.07;;;18.70;99.90;;;;;;4967108;28;20201;-73
2022/06/07 02:56:23;;;;;;;3.40;1.63;;;18.70;99.90;;;;;;4966999;28;20422;-72
2022/06/07 02:58:49;;;;;;;1.50;1.37;;;18.80;99.90;;;;;;4966757;28;20684;-72
2022/06/07 03:01:15;;;;;;;3.43;1.80;;;18.70;99.90;;;;;;4966986;28;20260;-72
2022/06/07 03:03:40;;;;;;;1.80;1.40;;;18.50;99.90;;;;;;4967114;28;20204;-72
2022/06/07 03:06:06;;;;;;;1.70;1.60;;;18.40;99.90;;;;;;4966635;28;20181;-73
2022/06/07 03:08:32;;;;;;;1.10;1.00;;;18.30;99.90;;;;;;4966814;28;20178;-73
2022/06/07 03:10:58;;;;;;;2.07;1.40;;;18.20;99.90;;;;;;4966597;28;20413;-72
2022/06/07 03:13:24;;;;;;;2.43;1.27;;;18.20;99.90;;;;;;4966436;28;20512;-73
2022/06/07 03:15:52;;;;;;;1.80;1.10;;;18.20;99.90;;;;;;4957790;28;20189;-72
2022/06/07 03:18:18;;;;;;;1.27;1.13;;;18.40;99.90;;;;;;4966574;28;20897;-73
2022/06/07 03:20:46;;;;;;;4.67;1.67;;;18.40;99.90;;;;;;4966815;28;20424;-72
2022/06/07 03:23:11;;;;;;;2.63;1.47;;;18.50;99.90;;;;;;4966520;28;20205;-72
2022/06/07 03:25:37;;;;;;;1.60;1.17;;;18.50;99.90;;;;;;4966566;28;20936;-73
2022/06/07 03:28:03;;;;;;;1.63;1.33;;;18.60;99.90;;;;;;4965970;28;20197;-74
2022/06/07 03:30:29;;;;;;;1.20;1.10;;;18.70;99.90;;;;;;4966444;28;20180;-72
2022/06/07 03:32:54;;;;;;;1.20;0.83;;;18.80;99.90;;;;;;4966280;28;20440;-73
2022/06/07 03:35:20;;;;;;;1.63;1.30;;;18.90;99.90;;;;;;4966001;28;20232;-73
2022/06/07 03:37:46;;;;;;;2.23;1.20;;;18.90;99.90;;;;;;4966105;28;20185;-73
2022/06/07 03:40:14;;;;;;;1.30;1.20;;;18.90;99.90;;;;;;4965872;28;20173;-73
2022/06/07 03:42:40;;;;;;;3.43;1.50;;;18.80;99.90;;;;;;4965965;28;20201;-73
2022/06/07 03:45:06;;;;;;;1.67;1.17;;;18.80;99.90;;;;;;4965692;28;20939;-72
2022/06/07 03:47:33;;;;;;;1.53;1.17;;;18.70;99.90;;;;;;4965629;28;20452;-73
2022/06/07 03:49:59;;;;;;;1.87;1.23;;;18.70;99.90;;;;;;4966032;28;20416;-73
2022/06/07 03:52:24;;;;;;;1.43;1.30;;;18.60;99.90;;;;;;4965576;28;20435;-74
2022/06/07 03:54:50;;;;;;;1.80;1.10;;;18.60;99.90;;;;;;4966010;28;20199;-73
2022/06/07 03:57:16;;;;;;;1.63;1.10;;;18.60;99.90;;;;;;4966019;28;20181;-75
2022/06/07 03:59:43;;;;;;;2.43;1.20;;;18.70;99.90;;;;;;4965937;28;20483;-73
2022/06/07 04:02:09;;;;;;;1.73;1.03;;;18.80;99.90;;;;;;4965988;28;20859;-72
2022/06/07 04:04:36;;;;;;;1.37;0.93;;;18.80;99.90;;;;;;4965562;28;20536;-72
2022/06/07 04:09:47;;;;;;;1.83;1.20;;;18.80;99.90;;;;;;4965659;28;20872;-72
2022/06/07 04:12:16;;;;;;;1.70;1.17;;;18.80;99.90;;;;;;4965318;28;20456;-71
2022/06/07 04:14:43;;;;;;;1.00;0.90;;;18.90;99.90;;;;;;4965320;28;20713;-72
2022/06/07 04:17:10;;;;;;;1.07;0.90;;;18.90;99.90;;;;;;4965638;28;20537;-72
2022/06/07 04:19:37;;;;;;;1.30;1.00;;;18.80;99.90;;;;;;4965270;28;20424;-72
2022/06/07 04:22:04;;;;;;;1.93;0.90;;;18.90;99.90;;;;;;4965328;28;20444;-72
2022/06/07 04:24:30;;;;;;;1.40;1.00;;;18.90;99.90;;;;;;4965324;28;20987;-72
2022/06/07 04:26:56;;;;;;;4.70;1.50;;;18.90;99.90;;;;;;4964801;28;20979;-72
2022/06/07 04:29:23;;;;;;;1.47;1.37;;;18.90;99.90;;;;;;4954930;28;21048;-72
2022/06/07 04:31:49;;;;;;;1.00;0.90;;;18.80;99.90;;;;;;4965193;28;20539;-72
2022/06/07 04:34:14;;;;;;;1.10;0.97;;;18.90;99.90;;;;;;4964981;28;20938;-72
2022/06/07 04:36:40;;;;;;;3.23;1.50;;;18.90;99.90;;;;;;4964621;28;20614;-73
2022/06/07 04:39:06;;;;;;;1.20;1.00;;;19.00;99.90;;;;;;4964814;28;20185;-73
2022/06/07 04:41:33;;;;;;;1.20;1.03;;;19.10;99.90;;;;;;4964950;28;20264;-72
2022/06/07 04:43:59;;;;;;;2.83;1.30;;;19.10;99.90;;;;;;4954063;28;20444;-72
2022/06/07 04:46:27;;;;;;;1.60;0.90;;;19.00;99.90;;;;;;4964928;28;20972;-73
2022/06/07 04:48:53;;;;;;;1.20;1.07;;;19.00;99.90;;;;;;4965002;28;20428;-72
2022/06/07 04:51:27;;;;;;;1.10;0.90;;;19.10;99.90;;;;;;4960556;28;20917;-73
2022/06/07 04:53:53;;;;;;;1.60;1.20;;;19.10;99.90;;;;;;4965417;28;20861;-73
2022/06/07 04:56:25;;;;;;;2.37;1.10;;;19.10;99.90;;;;;;4964681;28;20467;-73
2022/06/07 04:58:51;;;;;;;1.37;1.10;;;18.90;99.90;;;;;;4964536;28;20420;-72
2022/06/07 05:01:22;;;;;;;1.27;0.90;;;18.90;99.90;;;;;;4963567;28;20457;-72
2022/06/07 05:03:49;;;;;;;1.17;1.03;;;18.80;99.90;;;;;;4964835;28;20602;-72
2022/06/07 05:06:24;;;;;;;1.10;1.00;;;18.70;99.90;;;;;;4965038;28;20447;-73
2022/06/07 05:08:51;;;;;;;3.23;1.03;;;18.70;99.90;;;;;;4952633;28;20491;-72
2022/06/07 05:11:17;;;;;;;3.70;1.20;;;18.90;99.90;;;;;;4965110;28;20810;-73
2022/06/07 05:13:44;;;;;;;1.53;1.20;;;18.80;99.90;;;;;;4964595;28;20467;-73
2022/06/07 05:16:10;;;;;;;2.63;1.10;;;18.80;99.90;;;;;;4965013;28;20829;-72
2022/06/07 05:18:36;;;;;;;1.00;0.90;;;18.90;99.90;;;;;;4964721;28;20440;-74
2022/06/07 05:21:09;;;;;;;1.60;1.10;;;18.80;99.90;;;;;;4964392;28;20425;-72
2022/06/07 05:23:35;;;;;;;2.00;1.17;;;19.00;99.90;;;;;;4964721;28;20201;-72
2022/06/07 05:26:26;;;;;;;1.43;1.13;;;19.10;99.90;;;;;;4964339;28;20475;-73
2022/06/07 05:28:52;;;;;;;4.40;1.43;;;19.20;99.90;;;;;;4963886;28;20208;-72
2022/06/07 05:31:17;;;;;;;1.53;1.40;;;19.10;99.90;;;;;;4964324;28;20885;-74
2022/06/07 05:33:43;;;;;;;2.00;0.93;;;19.20;99.90;;;;;;4964727;28;20237;-72
2022/06/07 05:36:08;;;;;;;1.33;1.23;;;19.20;99.90;;;;;;4964763;28;21113;-72
2022/06/07 05:38:35;;;;;;;2.70;1.43;;;19.20;99.90;;;;;;4964468;28;20191;-72
2022/06/07 05:41:00;;;;;;;2.47;1.37;;;19.30;99.90;;;;;;4964105;28;20491;-72
2022/06/07 05:43:27;;;;;;;2.90;1.33;;;19.30;99.90;;;;;;4964201;28;20662;-72
2022/06/07 05:45:55;;;;;;;8.07;1.53;;;19.40;99.90;;;;;;4964852;28;20185;-72
2022/06/07 05:48:21;;;;;;;3.07;2.67;;;19.60;99.90;;;;;;4966517;28;20479;-71
2022/06/07 05:50:53;;;;;;;1.20;1.10;;;19.80;99.90;;;;;;4968021;28;20424;-71
2022/06/07 05:53:20;;;;;;;3.90;1.80;;;19.90;99.90;;;;;;4967863;28;20429;-71
2022/06/07 05:55:47;;;;;;;1.30;1.20;;;19.90;99.90;;;;;;4967618;28;20508;-72
2022/06/07 05:58:13;;;;;;;3.87;1.50;;;19.80;99.90;;;;;;4967519;28;20417;-71
2022/06/07 06:00:39;;;;;;;2.00;1.37;;;20.00;99.90;;;;;;4967582;28;20409;-74
2022/06/07 06:03:06;;;;;;;1.50;1.20;;;20.00;99.90;;;;;;4967866;28;20809;-72
2022/06/07 06:05:33;;;;;;;1.30;1.10;;;20.10;99.90;;;;;;4967556;28;20412;-71
2022/06/07 06:10:43;;;;;;;3.27;1.60;;;20.20;99.90;;;;;;4967654;28;20931;-72
2022/06/07 06:13:08;;;;;;;3.83;1.50;;;20.30;99.90;;;;;;4967490;28;20452;-72
2022/06/07 06:15:34;;;;;;;1.83;1.13;;;20.30;99.90;;;;;;4967479;28;20184;-72
2022/06/07 06:18:05;;;;;;;1.57;1.40;;;20.10;99.90;;;;;;4967666;28;21057;-71
2022/06/07 06:20:31;;;;;;;1.77;1.30;;;20.00;99.90;;;;;;4967507;28;20181;-71
2022/06/07 06:22:57;;;;;;;2.70;1.70;;;20.00;99.90;;;;;;4967719;28;20444;-71
2022/06/07 06:25:23;;;;;;;5.70;1.30;;;20.10;99.90;;;;;;4967096;28;20490;-73
2022/06/07 06:27:49;;;;;;;3.50;1.30;;;20.30;99.90;;;;;;4967483;28;20464;-73
2022/06/07 06:30:15;;;;;;;1.50;1.40;;;20.20;99.90;;;;;;4967123;28;20177;-71
2022/06/07 06:32:40;;;;;;;1.90;1.23;;;19.80;99.90;;;;;;4967498;28;20216;-74
2022/06/07 06:35:06;;;;;;;1.53;1.43;;;19.80;99.90;;;;;;4967530;28;20177;-73
2022/06/07 06:37:32;;;;;;;3.10;1.30;;;19.80;99.90;;;;;;4967339;28;20391;-72
2022/06/07 06:39:58;;;;;;;2.60;1.20;;;19.80;99.90;;;;;;4967195;28;20474;-73
2022/06/07 06:42:23;;;;;;;2.53;1.30;;;20.10;99.90;;;;;;4966654;28;20637;-71
2022/06/07 06:44:49;;;;;;;1.47;1.37;;;19.80;99.90;;;;;;4949749;28;20186;-71
2022/06/07 06:47:14;;;;;;;1.33;1.23;;;19.90;99.90;;;;;;4966889;28;20244;-71
2022/06/07 06:49:41;;;;;;;1.97;1.10;;;20.00;99.90;;;;;;4967267;28;20483;-72
2022/06/07 06:52:09;;;;;;;1.73;1.20;;;20.10;99.90;;;;;;4966823;28;20340;-74
2022/06/07 06:54:35;;;;;;;2.80;1.40;;;20.20;99.90;;;;;;4967174;28;20412;-72
2022/06/07 06:57:01;;;;;;;3.10;1.50;;;20.10;99.90;;;;;;4967325;28;20427;-73
2022/06/07 06:59:26;;;;;;;1.40;1.30;;;20.20;99.90;;;;;;4966224;28;20478;-72
2022/06/07 07:01:53;;;;;;;1.97;1.20;;;20.10;99.90;;;;;;4967325;28;20177;-74
2022/06/07 07:04:20;;;;;;;1.30;1.10;;;19.90;99.90;;;;;;4967513;28;20503;-73
2022/06/07 07:06:46;;;;;;;1.73;1.10;;;20.00;99.90;;;;;;4966432;28;21286;-72
2022/06/07 07:09:14;;;;;;;4.63;1.20;;;20.20;99.90;;;;;;4966731;28;20421;-72
2022/06/07 07:11:48;;;;;;;3.10;1.40;;;20.20;99.90;;;;;;4966712;28;20463;-72
2022/06/07 07:14:14;;;;;;;2.00;1.20;;;20.40;99.90;;;;;;4966412;28;20435;-72
2022/06/07 07:16:47;;;;;;;3.23;1.50;;;20.40;99.90;;;;;;4967041;28;20440;-71
2022/06/07 07:19:14;;;;;;;1.50;1.10;;;20.40;99.90;;;;;;4967500;28;20412;-72
2022/06/07 07:21:43;;;;;;;1.87;1.20;;;20.30;99.90;;;;;;4967724;28;20422;-72
2022/06/07 07:24:13;;;;;;;3.73;1.27;;;20.20;99.90;;;;;;4966669;28;20412;-71
2022/06/07 07:26:43;;;;;;;1.50;1.20;;;20.10;99.90;;;;;;4963946;28;20445;-72
2022/06/07 07:29:09;;;;;;;1.20;1.10;;;20.00;99.90;;;;;;4966130;28;20420;-72
2022/06/07 07:31:39;;;;;;;1.10;1.00;;;19.80;99.90;;;;;;4965635;28;20416;-72
2022/06/07 07:34:09;;;;;;;2.10;1.40;;;20.00;99.90;;;;;;4966718;28;20484;-73
2022/06/07 07:36:37;;;;;;;3.43;1.60;;;20.30;99.90;;;;;;4966615;28;20409;-71
2022/06/07 07:39:04;;;;;;;2.10;1.40;;;20.60;99.90;;;;;;4966454;28;20556;-71
2022/06/07 07:41:32;;;;;;;1.20;1.10;;;20.70;99.90;;;;;;4965943;28;20495;-73
2022/06/07 07:44:01;;;;;;;1.40;1.10;;;20.90;99.90;;;;;;4965797;28;20456;-71
2022/06/07 07:46:31;;;;;;;2.00;1.53;;;20.90;99.90;;;;;;4966037;28;20770;-72
2022/06/07 07:48:56;;;;;;;2.00;1.10;;;21.30;99.90;;;;;;4966144;28;20787;-73
2022/06/07 07:51:29;;;;;;;2.43;1.03;;;21.70;99.90;;;;;;4966339;28;20409;-71
2022/06/07 07:53:57;;;;;;;2.83;1.47;;;21.80;99.90;;;;;;4964838;28;20190;-72
2022/06/07 07:56:24;;;;;;;2.80;1.47;;;21.90;99.90;;;;;;4966021;28;20472;-73
2022/06/07 07:58:51;;;;;;;2.83;1.20;;;22.00;99.90;;;;;;4966031;28;20412;-72
2022/06/07 08:01:21;;;;;;;2.47;1.03;;;22.10;99.90;;;;;;4966151;28;20427;-72
2022/06/07 08:03:48;;;;;;;1.80;1.17;;;21.80;99.90;;;;;;4966256;28;20444;-73
2022/06/07 08:06:17;;;;;;;1.67;1.10;;;21.40;99.90;;;;;;4955914;28;20428;-73
2022/06/07 08:08:43;;;;;;;2.23;1.60;;;21.50;99.90;;;;;;4964421;28;20563;-73
2022/06/07 08:11:09;;;;;;;2.47;1.40;;;21.40;99.90;;;;;;4964313;28;20519;-73
2022/06/07 08:13:36;;;;;;;3.63;1.50;;;21.30;99.90;;;;;;4965980;28;20466;-74
2022/06/07 08:16:04;;;;;;;2.20;1.20;;;21.40;99.90;;;;;;4963119;28;20539;-75
2022/06/07 08:18:30;;;;;;;2.40;1.10;;;21.40;99.90;;;;;;4965726;28;20489;-72
2022/06/07 08:21:01;;;;;;;3.20;1.30;;;21.50;99.90;;;;;;4965373;28;20456;-71
2022/06/07 08:23:31;;;;;;;3.80;1.43;;;21.90;99.90;;;;;;4964966;28;20296;-78
2022/06/07 08:25:57;;;;;;;2.00;1.20;;;22.30;99.90;;;;;;4966124;28;20474;-75
2022/06/07 08:28:24;;;;;;;1.20;1.00;;;22.30;99.50;;;;;;4964331;28;20476;-73
2022/06/07 08:30:51;;;;;;;2.03;1.10;;;22.30;99.80;;;;;;4965828;28;20795;-74
2022/06/07 08:38:54;;;;;;;2.17;0.97;;;22.50;99.50;;;;;;4965854;28;20476;-74
2022/06/07 08:41:35;;;;;;;2.37;1.30;;;22.40;99.10;;;;;;4965355;28;20895;-74
2022/06/07 08:44:26;;;;;;;1.87;1.70;;;22.40;99.00;;;;;;4964916;28;20251;-76
2022/06/07 08:46:55;;;;;;;1.27;1.00;;;22.60;99.90;;;;;;4965261;28;20467;-75
2022/06/07 08:49:22;;;;;;;1.37;1.27;;;22.80;98.90;;;;;;4965556;28;20444;-72
2022/06/07 08:52:07;;;;;;;1.80;1.17;;;22.70;98.70;;;;;;4965112;28;21497;-71
2022/06/07 08:54:37;;;;;;;1.30;0.90;;;22.70;99.50;;;;;;4964998;28;20672;-74
2022/06/07 08:57:23;;;;;;;2.90;1.50;;;22.50;98.40;;;;;;4948401;28;20497;-72
2022/06/07 08:59:55;;;;;;;1.70;1.10;;;22.20;99.00;;;;;;4964838;28;20419;-74
2022/06/07 09:02:52;;;;;;;2.07;1.13;;;22.40;99.30;;;;;;4950082;28;20527;-74
2022/06/07 09:05:18;;;;;;;1.30;1.00;;;22.10;99.20;;;;;;4964762;28;20504;-74
2022/06/07 09:07:45;;;;;;;1.63;1.07;;;22.20;99.50;;;;;;4965082;28;20460;-72
2022/06/07 09:13:16;;;;;;;1.20;1.00;;;22.30;98.60;;;;;;4964882;28;20447;-71
2022/06/07 09:15:47;;;;;;;1.00;0.83;;;22.40;98.80;;;;;;4965079;28;20408;-72
2022/06/07 09:18:16;;;;;;;1.80;1.00;;;22.50;97.40;;;;;;4965097;28;20416;-72
2022/06/07 09:20:46;;;;;;;1.43;0.97;;;22.70;98.10;;;;;;4964655;28;20459;-72
2022/06/07 09:23:27;;;;;;;1.07;0.97;;;23.00;98.10;;;;;;4968570;28;20932;-72
2022/06/07 09:25:55;;;;;;;2.40;1.00;;;23.10;97.00;;;;;;4968894;28;20479;-71
2022/06/07 09:28:29;;;;;;;2.20;0.80;;;23.60;96.80;;;;;;4968278;28;20460;-73
2022/06/07 09:31:10;;;;;;;1.77;1.00;;;23.70;96.90;;;;;;4968698;28;20451;-73
2022/06/07 09:33:53;;;;;;;2.40;0.90;;;22.90;96.40;;;;;;4968397;28;20840;-74
2022/06/07 09:36:37;;;;;;;2.17;1.20;;;22.80;96.90;;;;;;4968540;28;20902;-73
2022/06/07 09:39:13;;;;;;;2.00;1.10;;;22.90;97.70;;;;;;4968699;28;20408;-71
2022/06/07 09:41:43;;;;;;;1.20;0.90;;;22.90;97.20;;;;;;4968548;28;20463;-71
2022/06/07 09:44:31;;;;;;;2.60;1.33;;;22.90;96.30;;;;;;4968266;28;20903;-72
2022/06/07 09:47:13;;;;;;;2.27;0.93;;;22.80;97.70;;;;;;4968259;28;20464;-73
2022/06/07 09:50:02;;;;;;;0.97;0.87;;;22.90;95.80;;;;;;4967858;28;20779;-73
2022/06/07 09:52:42;;;;;;;1.30;0.73;;;23.00;95.00;;;;;;4928176;28;21004;-75
2022/06/07 09:55:21;;;;;;;2.50;1.20;;;22.90;94.90;;;;;;4968090;28;20424;-72
2022/06/07 09:58:22;;;;;;;1.90;0.83;;;23.00;95.80;;;;;;4968385;28;20892;-75
2022/06/07 10:00:57;;;;;;;1.23;0.83;;;23.20;95.40;;;;;;4967607;28;20931;-73
2022/06/07 10:03:31;;;;;;;2.90;1.00;;;23.10;94.20;;;;;;4968145;28;20443;-72
2022/06/07 10:06:08;;;;;;;1.00;0.87;;;23.20;94.20;;;;;;4968128;28;20424;-74
2022/06/07 10:09:05;;;;;;;3.53;0.97;;;23.50;95.00;;;;;;4968279;28;20509;-72
2022/06/07 10:11:46;;;;;;;2.00;0.97;;;23.30;94.20;;;;;;4968226;28;20767;-75
2022/06/07 10:14:28;;;;;;;1.20;1.10;;;23.10;94.40;;;;;;4967427;28;20419;-74
2022/06/07 10:17:02;;;;;;;2.10;1.33;;;23.10;94.90;;;;;;4967706;28;20412;-72
2022/06/07 10:19:34;;;;;;;2.20;0.90;;;23.50;94.30;;;;;;4967015;28;20455;-72
2022/06/07 10:21:59;;;;;;;3.90;0.97;;;23.50;94.40;;;;;;4967744;28;21067;-73
2022/06/07 10:24:28;;;;;;;1.23;0.80;;;23.80;94.00;;;;;;4967712;28;20420;-73
2022/06/07 10:27:12;;;;;;;2.40;1.50;;;24.20;94.60;;;;;;4967915;28;20212;-73
2022/06/07 10:29:44;;;;;;;4.47;1.13;;;24.20;92.50;;;;;;4967083;28;20487;-73
2022/06/07 10:32:15;;;;;;;1.17;0.80;;;23.60;92.70;;;;;;4967299;28;20495;-73
2022/06/07 10:34:48;;;;;;;1.93;1.53;;;23.90;93.20;;;;;;4966758;28;20453;-73
2022/06/07 10:37:36;;;;;;;1.00;0.80;;;24.20;93.70;;;;;;4967428;28;20425;-73
2022/06/07 10:40:11;;;;;;;1.67;1.00;;;24.00;91.00;;;;;;4967610;28;20444;-75
2022/06/07 10:42:54;;;;;;;2.83;0.83;;;23.60;91.60;;;;;;4967956;28;20522;-73
2022/06/07 10:45:32;;;;;;;2.63;1.30;;;23.70;93.60;;;;;;4967001;28;20416;-74
2022/06/07 10:48:33;;;;;;;1.40;0.90;;;24.00;93.90;;;;;;4967070;28;20578;-75
2022/06/07 10:54:15;;;;;;;2.40;1.00;;;23.70;93.40;;;;;;4967454;28;20600;-74
2022/06/07 10:56:56;;;;;;;1.60;1.20;;;23.70;94.10;;;;;;4967107;28;21391;-74
2022/06/07 10:59:22;;;;;;;2.00;0.90;;;23.80;94.90;;;;;;4966937;28;20427;-74
2022/06/07 11:02:01;;;;;;;3.27;1.10;;;23.80;94.50;;;;;;4966756;28;20930;-75
2022/06/07 11:10:32;;;;;;;1.50;0.83;;;23.70;94.20;;;;;;4967027;28;20408;-73
2022/06/07 11:13:21;;;;;;;2.50;1.20;;;24.20;93.40;;;;;;4966381;28;20586;-75
2022/06/07 11:16:11;;;;;;;1.17;0.90;;;24.50;92.90;;;;;;4965402;28;20432;-73
2022/06/07 11:18:41;;;;;;;1.47;1.03;;;24.30;93.50;;;;;;4966651;28;20459;-72
2022/06/07 11:21:20;;;;;;;3.83;0.83;;;24.60;92.30;;;;;;4966526;28;20512;-72
2022/06/07 11:24:14;;;;;;;1.20;1.00;;;24.60;92.60;;;;;;4966686;28;20495;-73
2022/06/07 11:26:52;;;;;;;1.57;0.97;;;24.80;93.10;;;;;;4966510;28;20979;-73
2022/06/07 11:29:25;;;;;;;1.47;0.80;;;25.10;93.10;;;;;;4966597;28;20413;-72
2022/06/07 11:31:51;;;;;;;3.13;1.00;;;25.10;92.20;;;;;;4965983;28;20409;-71
2022/06/07 11:34:23;;;;;;;1.13;0.80;;;25.10;92.20;;;;;;4966277;28;21254;-72
2022/06/07 11:36:50;;;;;;;1.40;1.03;;;25.50;91.80;;;;;;4966030;28;20444;-72
2022/06/07 11:39:25;;;;;;;2.43;1.10;;;25.80;91.40;;;;;;4966353;28;20425;-74
2022/06/07 11:41:52;;;;;;;2.40;1.00;;;25.90;91.00;;;;;;4966250;28;20416;-72
2022/06/07 11:44:17;;;;;;;2.00;0.90;;;27.40;88.10;;;;;;4965760;28;20464;-70
2022/06/07 11:46:52;;;;;;;1.83;1.10;;;26.80;88.10;;;;;;4965304;28;20452;-72
2022/06/07 11:49:20;;;;;;;1.10;1.00;;;26.10;90.70;;;;;;4966101;28;20180;-73
2022/06/07 11:52:14;;;;;;;1.50;1.10;;;25.70;90.50;;;;;;4965912;28;20413;-72
2022/06/07 11:54:54;;;;;;;1.47;0.90;;;25.10;91.40;;;;;;4965934;28;20921;-73
2022/06/07 11:57:25;;;;;;;1.27;0.93;;;25.10;91.80;;;;;;4965695;28;20415;-71
2022/06/07 12:00:14;;;;;;;1.50;1.20;;;24.30;92.70;;;;;;4965726;28;20420;-72
2022/06/07 12:02:41;;;;;;;1.63;0.97;;;24.20;93.60;;;;;;4965325;28;20452;-74
2022/06/07 12:05:43;;;;;;;1.20;1.07;;;23.80;93.70;;;;;;4965606;28;20412;-75
2022/06/07 12:08:26;;;;;;;2.13;1.20;;;23.90;94.10;;;;;;4958882;28;20504;-70
2022/06/07 12:11:02;;;;;;;1.17;0.93;;;24.30;95.20;;;;;;4966308;28;20401;-73
2022/06/07 12:13:54;;;;;;;1.10;1.00;;;24.30;93.70;;;;;;4965816;28;20892;-74
2022/06/07 12:16:19;;;;;;;2.10;1.03;;;24.30;93.90;;;;;;4965546;28;20416;-72
2022/06/07 12:18:55;;;;;;;2.23;1.00;;;24.60;94.20;;;;;;4965536;28;20416;-73
2022/06/07 12:21:21;;;;;;;2.80;1.20;;;24.30;94.40;;;;;;4965897;28;20625;-72
2022/06/07 12:23:59;;;;;;;2.00;0.90;;;24.60;94.50;;;;;;4966016;28;20451;-74
2022/06/07 12:26:28;;;;;;;1.40;1.30;;;24.70;94.80;;;;;;4965977;28;21406;-75
2022/06/07 12:28:58;;;;;;;1.00;0.90;;;25.50;93.40;;;;;;4966504;28;20424;-72
2022/06/07 12:31:32;;;;;;;1.80;1.17;;;27.00;91.30;;;;;;4965137;28;20555;-75
2022/06/07 12:34:01;;;;;;;2.40;1.20;;;28.10;89.50;;;;;;4965360;28;20436;-74
2022/06/07 12:36:36;;;;;;;1.10;1.00;;;28.00;87.50;;;;;;4965464;28;20526;-75
2022/06/07 12:39:13;;;;;;;2.47;0.87;;;28.10;87.30;;;;;;4964895;28;20420;-73
2022/06/07 12:41:47;;;;;;;1.30;1.10;;;28.10;87.80;;;;;;4965417;28;20455;-75
2022/06/07 12:44:27;;;;;;;3.10;0.90;;;27.50;88.90;;;;;;4965105;28;20892;-74
2022/06/07 12:46:53;;;;;;;2.33;1.77;;;26.70;89.50;;;;;;4964893;28;20807;-73
2022/06/07 12:49:26;;;;;;;3.20;1.20;;;26.30;90.50;;;;;;4965472;28;20452;-74
2022/06/07 12:51:57;;;;;;;1.10;0.90;;;26.50;89.90;;;;;;4965206;28;20483;-73
2022/06/07 12:54:24;;;;;;;1.30;1.10;;;26.30;90.50;;;;;;4965373;28;20508;-75
2022/06/07 12:56:52;;;;;;;1.23;1.10;;;26.00;90.70;;;;;;4965048;28;20420;-72
2022/06/07 12:59:22;;;;;;;1.10;0.97;;;26.30;91.50;;;;;;4954334;28;20460;-75
2022/06/07 13:01:50;;;;;;;2.60;1.27;;;26.70;91.40;;;;;;4965429;28;20419;-74
2022/06/07 13:04:27;;;;;;;3.27;1.00;;;27.60;89.90;;;;;;4965779;28;20479;-71
2022/06/07 13:07:10;;;;;;;1.73;1.40;;;27.90;89.70;;;;;;4965203;28;20448;-73
2022/06/07 13:09:36;;;;;;;2.20;1.07;;;26.30;90.00;;;;;;4965006;28;20428;-75
2022/06/07 13:12:03;;;;;;;3.00;1.10;;;25.80;91.20;;;;;;4964972;28;20558;-72
2022/06/07 13:14:29;;;;;;;1.47;0.90;;;25.70;90.90;;;;;;4965541;28;20409;-73
2022/06/07 13:17:10;;;;;;;2.40;1.30;;;25.40;91.60;;;;;;4965061;28;20428;-73
2022/06/07 13:19:41;;;;;;;1.93;1.20;;;25.40;91.00;;;;;;4965056;28;20858;-74
2022/06/07 13:22:16;;;;;;;2.87;1.13;;;25.50;92.10;;;;;;4965370;28;20771;-77
2022/06/07 13:24:45;;;;;;;3.23;0.93;;;26.40;91.20;;;;;;4947656;28;20458;-73
2022/06/07 13:27:34;;;;;;;1.53;1.03;;;27.90;87.00;;;;;;4964814;28;20823;-72
2022/06/07 13:30:00;;;;;;;1.63;1.23;;;27.70;85.30;;;;;;4964357;28;20405;-75
2022/06/07 13:32:28;;;;;;;1.67;1.00;;;27.70;87.80;;;;;;4964982;28;20448;-75